createdAt,value
2023-03-20T00:03:33.321Z,30.77
2023-03-20T00:06:23.033Z,28.20
2023-03-20T00:09:12.276Z,25.77
2023-03-20T00:12:00.338Z,25.33
2023-03-20T00:14:47.413Z,24.63
2023-03-20T00:17:34.615Z,25.27
2023-03-20T00:20:22.629Z,23.60
2023-03-20T00:23:09.670Z,30.42
2023-03-20T00:25:56.909Z,25.20
2023-03-20T00:28:48.315Z,31.05
2023-03-20T00:31:39.894Z,28.17
2023-03-20T00:34:29.801Z,26.25
2023-03-20T00:37:16.931Z,28.10
2023-03-20T00:40:04.389Z,30.02
2023-03-20T00:42:57.343Z,30.33
2023-03-20T00:45:46.267Z,23.42
2023-03-20T00:48:33.524Z,28.15
2023-03-20T00:51:20.871Z,27.83
2023-03-20T00:54:16.171Z,31.25
2023-03-20T00:57:08.597Z,25.90
2023-03-20T01:00:01.552Z,26.83
2023-03-20T01:02:51.110Z,24.33
2023-03-20T01:05:38.471Z,24.48
2023-03-20T01:08:26.260Z,27.80
2023-03-20T01:11:13.809Z,24.98
2023-03-20T01:14:00.936Z,29.13
2023-03-20T01:16:48.039Z,27.50
2023-03-20T01:19:35.087Z,28.85
2023-03-20T01:22:22.187Z,32.08
2023-03-20T01:25:10.063Z,32.35
2023-03-20T01:27:58.200Z,29.73
2023-03-20T01:30:46.170Z,29.23
2023-03-20T01:33:33.276Z,32.10
2023-03-20T01:36:23.916Z,28.45
2023-03-20T01:39:11.078Z,32.10
2023-03-20T01:41:58.171Z,31.85
2023-03-20T01:44:45.914Z,30.15
2023-03-20T01:47:33.057Z,28.55
2023-03-20T01:50:32.154Z,26.60
2023-03-20T01:53:23.351Z,26.35
2023-03-20T01:56:13.014Z,30.20
2023-03-20T01:59:04.622Z,25.70
2023-03-20T02:01:51.911Z,28.67
2023-03-20T02:04:44.476Z,27.50
2023-03-20T02:07:34.852Z,25.55
2023-03-20T02:10:22.375Z,26.63
2023-03-20T02:13:11.136Z,27.27
2023-03-20T02:16:11.483Z,27.70
2023-03-20T02:18:59.085Z,27.00
2023-03-20T02:22:11.511Z,30.05
2023-03-20T02:25:40.249Z,28.83
2023-03-20T02:28:42.620Z,26.67
2023-03-20T02:31:41.627Z,28.30
2023-03-20T02:34:50.655Z,24.90
2023-03-20T02:37:50.069Z,28.83
2023-03-20T02:40:48.749Z,24.38
2023-03-20T02:43:41.767Z,27.50
2023-03-20T02:46:42.418Z,26.88
2023-03-20T02:49:54.684Z,28.70
2023-03-20T02:52:53.845Z,28.55
2023-03-20T02:55:47.220Z,28.07
2023-03-20T02:59:08.469Z,32.92
2023-03-20T03:02:02.994Z,27.80
2023-03-20T03:04:53.970Z,24.67
2023-03-20T03:07:47.164Z,28.05
2023-03-20T03:10:44.317Z,29.92
2023-03-20T03:13:35.303Z,25.63
2023-03-20T03:16:33.728Z,29.88
2023-03-20T03:19:26.552Z,24.88
2023-03-20T03:22:14.408Z,26.83
2023-03-20T03:25:01.532Z,24.73
2023-03-20T03:28:13.082Z,28.27
2023-03-20T03:31:01.185Z,27.42
2023-03-20T03:33:55.605Z,29.27
2023-03-20T03:37:02.587Z,27.42
2023-03-20T03:40:05.340Z,25.38
2023-03-20T03:43:04.655Z,30.70
2023-03-20T03:46:34.268Z,28.92
2023-03-20T03:49:30.516Z,26.77
2023-03-20T03:52:22.792Z,27.88
2023-03-20T03:55:15.434Z,28.55
2023-03-20T03:58:09.442Z,32.38
2023-03-20T04:00:59.499Z,25.65
2023-03-20T04:06:38.654Z,28.48
2023-03-20T04:09:25.820Z,26.92
2023-03-20T04:12:37.746Z,27.70
2023-03-20T04:15:27.702Z,26.10
2023-03-20T04:18:19.537Z,25.77
2023-03-20T04:21:07.304Z,28.20
2023-03-20T04:23:54.371Z,28.00
2023-03-20T04:26:41.659Z,27.33
2023-03-20T04:29:28.823Z,27.73
2023-03-20T04:32:15.962Z,24.48
2023-03-20T04:35:03.065Z,29.02
2023-03-20T04:37:50.094Z,34.95
2023-03-20T04:40:37.278Z,27.30
2023-03-20T04:43:24.338Z,28.63
2023-03-20T04:46:11.419Z,32.65
2023-03-20T04:48:58.529Z,27.45
2023-03-20T04:51:45.694Z,32.22
2023-03-20T04:54:32.731Z,30.42
2023-03-20T04:57:19.832Z,34.10
2023-03-20T05:00:07.628Z,26.08
2023-03-20T05:02:54.741Z,27.33
2023-03-20T05:05:41.802Z,29.23
2023-03-20T05:08:28.868Z,32.17
2023-03-20T05:11:15.957Z,28.55
2023-03-20T05:14:04.778Z,31.08
2023-03-20T05:16:52.562Z,28.05
2023-03-20T05:19:39.698Z,28.08
2023-03-20T05:22:26.972Z,29.00
2023-03-20T05:25:14.062Z,28.27
2023-03-20T05:28:01.110Z,23.95
2023-03-20T05:30:48.348Z,24.05
2023-03-20T05:33:37.961Z,25.27
2023-03-20T05:36:25.472Z,26.92
2023-03-20T05:39:12.631Z,25.92
2023-03-20T05:41:59.762Z,28.60
2023-03-20T05:44:46.979Z,23.70
2023-03-20T05:47:34.096Z,23.98
2023-03-20T05:50:21.224Z,26.90
2023-03-20T05:53:08.493Z,26.58
2023-03-20T05:55:55.808Z,25.65
2023-03-20T05:58:42.962Z,24.10
2023-03-20T06:01:30.057Z,23.52
2023-03-20T06:04:17.217Z,21.83
2023-03-20T06:07:05.139Z,29.20
2023-03-20T06:09:52.250Z,24.17
2023-03-20T06:12:39.297Z,22.27
2023-03-20T06:15:27.228Z,21.80
2023-03-20T06:18:14.354Z,24.98
2023-03-20T06:21:02.545Z,22.65
2023-03-20T06:23:49.687Z,24.23
2023-03-20T06:26:36.758Z,29.48
2023-03-20T06:29:23.864Z,22.00
2023-03-20T06:32:12.500Z,20.35
2023-03-20T06:34:59.553Z,22.38
2023-03-20T06:37:46.643Z,19.50
2023-03-20T06:40:34.092Z,19.45
2023-03-20T06:43:21.536Z,20.35
2023-03-20T06:46:09.259Z,29.13
2023-03-20T06:48:56.368Z,20.67
2023-03-20T06:51:43.474Z,20.65
2023-03-20T06:54:30.767Z,19.02
2023-03-20T06:57:18.393Z,22.08
2023-03-20T07:00:06.561Z,17.17
2023-03-20T07:02:54.595Z,19.55
2023-03-20T07:05:43.309Z,21.40
2023-03-20T07:08:30.342Z,20.38
2023-03-20T07:11:17.438Z,19.50
2023-03-20T07:14:04.925Z,19.48
2023-03-20T07:16:52.146Z,16.52
2023-03-20T07:19:39.675Z,16.92
2023-03-20T07:22:28.435Z,18.23
2023-03-20T07:25:15.748Z,17.73
2023-03-20T07:28:02.852Z,16.45
2023-03-20T07:30:50.107Z,19.10
2023-03-20T07:33:37.481Z,16.02
2023-03-20T07:36:24.898Z,16.90
2023-03-20T07:39:14.108Z,15.10
2023-03-20T07:42:01.265Z,13.85
2023-03-20T07:44:48.343Z,16.05
2023-03-20T07:47:36.604Z,13.73
2023-03-20T07:50:23.855Z,13.10
2023-03-20T07:53:10.899Z,13.63
2023-03-20T07:55:58.037Z,13.25
2023-03-20T07:58:45.038Z,15.77
2023-03-20T08:01:32.128Z,15.18
2023-03-20T08:04:22.620Z,14.20
2023-03-20T08:07:10.284Z,12.95
2023-03-20T08:09:57.419Z,16.27
2023-03-20T08:12:44.837Z,13.85
2023-03-20T08:15:32.636Z,12.15
2023-03-20T08:18:22.705Z,13.32
2023-03-20T08:21:10.326Z,12.38
2023-03-20T08:23:57.453Z,14.43
2023-03-20T08:26:46.303Z,13.00
2023-03-20T08:29:33.459Z,12.68
2023-03-20T08:32:20.729Z,12.82
2023-03-20T08:35:16.362Z,17.02
2023-03-20T08:38:15.812Z,15.13
2023-03-20T08:41:03.302Z,12.43
2023-03-20T08:43:50.349Z,11.90
2023-03-20T08:46:37.508Z,12.18
2023-03-20T08:49:25.133Z,14.27
2023-03-20T08:52:12.244Z,10.75
2023-03-20T08:54:59.333Z,12.18
2023-03-20T08:57:47.393Z,13.02
2023-03-20T09:00:34.468Z,16.33
2023-03-20T09:03:22.171Z,12.60
2023-03-20T09:06:09.928Z,12.77
2023-03-20T09:08:57.402Z,13.02
2023-03-20T09:11:44.459Z,13.95
2023-03-20T09:14:31.592Z,13.52
2023-03-20T09:17:18.786Z,13.05
2023-03-20T09:20:06.500Z,14.05
2023-03-20T09:22:53.722Z,15.30
2023-03-20T09:25:40.947Z,13.40
2023-03-20T09:28:28.219Z,13.52
2023-03-20T09:31:15.416Z,12.45
2023-03-20T09:34:02.575Z,15.05
2023-03-20T09:36:50.261Z,13.57
2023-03-20T09:39:38.068Z,12.52
2023-03-20T09:42:53.131Z,14.60
2023-03-20T09:45:59.288Z,13.02
2023-03-20T09:48:54.738Z,13.35
2023-03-20T09:51:58.938Z,12.63
2023-03-20T09:54:54.733Z,14.63
2023-03-20T09:57:45.868Z,12.52
2023-03-20T10:00:35.770Z,12.43
2023-03-20T10:03:29.855Z,12.98
2023-03-20T10:06:18.124Z,14.02
2023-03-20T10:09:34.899Z,13.52
2023-03-20T10:12:46.365Z,13.30
2023-03-20T10:15:51.973Z,13.63
2023-03-20T10:18:43.285Z,14.98
2023-03-20T10:22:01.440Z,11.25
2023-03-20T10:24:55.991Z,13.10
2023-03-20T10:28:04.458Z,14.75
2023-03-20T10:31:06.316Z,11.95
2023-03-20T10:34:31.258Z,14.52
2023-03-20T10:37:33.666Z,16.70
2023-03-20T10:40:36.482Z,16.52
2023-03-20T10:43:30.362Z,14.27
2023-03-20T10:46:25.207Z,13.73
2023-03-20T10:49:14.915Z,14.30
2023-03-20T10:52:07.535Z,17.90
2023-03-20T10:55:35.983Z,16.38
2023-03-20T10:58:26.771Z,10.40
2023-03-20T11:01:14.555Z,10.73
2023-03-20T11:04:01.926Z,8.65
2023-03-20T11:07:04.128Z,10.32
2023-03-20T11:10:06.595Z,8.80
2023-03-20T11:12:53.743Z,11.40
2023-03-20T11:15:41.257Z,8.32
2023-03-20T11:18:31.381Z,7.25
2023-03-20T11:21:22.930Z,7.97
2023-03-20T11:24:22.610Z,10.73
2023-03-20T11:27:16.174Z,9.48
2023-03-20T11:30:07.670Z,9.48
2023-03-20T11:32:56.438Z,9.85
2023-03-20T11:35:48.171Z,7.82
2023-03-20T11:38:42.874Z,8.35
2023-03-20T11:41:29.987Z,8.30
2023-03-20T11:44:36.963Z,9.52
2023-03-20T11:47:27.887Z,7.55
2023-03-20T11:50:30.012Z,7.65
2023-03-20T11:53:19.784Z,10.80
2023-03-20T11:59:06.606Z,6.35
2023-03-20T12:01:56.140Z,7.80
2023-03-20T12:04:44.153Z,5.70
2023-03-20T12:07:36.820Z,7.13
2023-03-20T12:10:28.908Z,6.70
2023-03-20T12:13:28.871Z,8.57
2023-03-20T12:16:21.721Z,6.45
2023-03-20T12:19:18.756Z,7.10
2023-03-20T12:22:28.823Z,6.25
2023-03-20T12:25:26.845Z,9.60
2023-03-20T12:28:47.068Z,6.10
2023-03-20T12:31:45.871Z,6.03
2023-03-20T12:34:52.815Z,6.87
2023-03-20T12:37:39.982Z,6.25
2023-03-20T12:40:50.442Z,6.65
2023-03-20T12:43:50.100Z,5.57
2023-03-20T12:46:59.415Z,6.35
2023-03-20T12:49:46.632Z,5.95
2023-03-20T12:52:49.618Z,8.48
2023-03-20T12:55:48.904Z,6.78
2023-03-20T12:58:38.972Z,6.32
2023-03-20T13:01:32.927Z,7.47
2023-03-20T13:04:38.271Z,6.93
2023-03-20T13:07:34.383Z,5.75
2023-03-20T13:10:33.927Z,7.03
2023-03-20T13:13:58.562Z,6.72
2023-03-20T13:16:53.436Z,7.35
2023-03-20T13:20:14.495Z,6.97
2023-03-20T13:23:16.789Z,6.35
2023-03-20T13:26:30.015Z,6.50
2023-03-20T13:29:42.428Z,7.75
2023-03-20T13:32:41.642Z,5.45
2023-03-20T13:35:50.493Z,7.32
2023-03-20T13:38:43.116Z,9.77
2023-03-20T13:41:31.021Z,8.60
2023-03-20T13:44:21.237Z,6.05
2023-03-20T13:47:15.954Z,8.25
2023-03-20T13:50:25.289Z,4.75
2023-03-20T13:53:44.352Z,7.32
2023-03-20T13:57:07.634Z,5.03
2023-03-20T13:59:59.729Z,5.65
2023-03-20T14:03:24.379Z,4.90
2023-03-20T14:06:19.149Z,6.13
2023-03-20T14:09:25.973Z,6.15
2023-03-20T14:12:13.755Z,4.88
2023-03-20T14:15:03.756Z,7.22
2023-03-20T14:17:52.294Z,17.48
2023-03-20T14:20:41.387Z,6.82
2023-03-20T14:23:47.188Z,5.50
2023-03-20T14:26:42.948Z,5.70
2023-03-20T14:29:29.973Z,6.47
2023-03-20T14:32:17.021Z,4.43
2023-03-20T14:35:26.866Z,6.38
2023-03-20T14:38:30.085Z,5.90
2023-03-20T14:41:24.479Z,6.85
2023-03-20T14:44:39.365Z,8.23
2023-03-20T14:47:49.233Z,6.65
2023-03-20T14:53:35.608Z,6.43
2023-03-20T14:56:33.575Z,6.07
2023-03-20T14:59:22.834Z,5.82
2023-03-20T15:02:28.221Z,6.65
2023-03-20T15:05:26.344Z,8.98
2023-03-20T15:08:25.806Z,8.93
2023-03-20T15:11:14.938Z,5.18
2023-03-20T15:14:07.559Z,6.35
2023-03-20T15:16:59.902Z,7.47
2023-03-20T15:19:47.523Z,7.32
2023-03-20T15:22:34.872Z,7.55
2023-03-20T15:25:24.862Z,5.10
2023-03-20T15:28:25.842Z,9.60
2023-03-20T15:31:30.468Z,11.45
2023-03-20T15:34:22.488Z,9.13
2023-03-20T15:37:16.278Z,5.78
2023-03-20T15:40:18.584Z,8.93
2023-03-20T15:43:26.174Z,8.43
2023-03-20T15:46:18.242Z,6.13
2023-03-20T15:49:05.744Z,11.90
2023-03-20T15:51:54.717Z,9.15
2023-03-20T15:54:43.398Z,6.83
2023-03-20T15:57:35.685Z,11.88
2023-03-20T16:00:34.306Z,17.23
2023-03-20T16:03:22.482Z,6.45
2023-03-20T16:06:12.517Z,10.30
2023-03-20T16:09:16.564Z,33.92
2023-03-20T16:12:14.042Z,8.00
2023-03-20T16:15:01.549Z,6.93
2023-03-20T16:17:55.999Z,9.77
2023-03-20T16:21:16.284Z,18.23
2023-03-20T16:24:10.009Z,7.25
2023-03-20T16:27:07.030Z,13.60
2023-03-20T16:29:55.246Z,9.82
2023-03-20T16:32:47.393Z,6.38
2023-03-20T16:35:40.698Z,9.43
2023-03-20T16:38:37.591Z,35.35
2023-03-20T16:41:39.057Z,8.82
2023-03-20T16:44:33.003Z,14.05
2023-03-20T16:47:36.458Z,7.13
2023-03-20T16:50:34.500Z,7.40
2023-03-20T16:53:23.569Z,19.67
2023-03-20T16:56:14.670Z,18.33
2023-03-20T16:59:18.385Z,12.50
2023-03-20T17:02:12.704Z,8.20
2023-03-20T17:05:06.356Z,13.65
2023-03-20T17:08:04.113Z,9.00
2023-03-20T17:10:57.347Z,8.02
2023-03-20T17:13:44.714Z,9.40
2023-03-20T17:16:34.118Z,8.38
2023-03-20T17:19:21.817Z,7.82
2023-03-20T17:22:26.760Z,16.17
2023-03-20T17:25:14.470Z,10.23
2023-03-20T17:28:01.551Z,9.07
2023-03-20T17:30:49.852Z,11.35
2023-03-20T17:33:38.602Z,10.90
2023-03-20T17:36:28.770Z,10.52
2023-03-20T17:39:19.646Z,8.43
2023-03-20T17:42:31.562Z,8.13
2023-03-20T17:45:20.835Z,10.35
2023-03-20T17:48:20.953Z,12.18
2023-03-20T17:51:09.921Z,11.27
2023-03-20T17:53:58.572Z,8.57
2023-03-20T17:56:46.068Z,8.73
2023-03-20T17:59:33.321Z,10.98
2023-03-20T18:02:20.848Z,8.90
2023-03-20T18:05:08.749Z,7.70
2023-03-20T18:07:56.431Z,14.90
2023-03-20T18:10:44.378Z,10.77
2023-03-20T18:13:32.558Z,13.82
2023-03-20T18:16:23.105Z,15.25
2023-03-20T18:19:26.295Z,11.57
2023-03-20T18:22:14.565Z,48.63
2023-03-20T18:25:02.914Z,13.65
2023-03-20T18:27:51.762Z,13.63
2023-03-20T18:30:42.440Z,11.45
2023-03-20T18:33:31.377Z,16.50
2023-03-20T18:36:21.868Z,13.85
2023-03-20T18:39:18.629Z,9.00
2023-03-20T18:42:07.066Z,12.27
2023-03-20T18:44:55.335Z,9.80
2023-03-20T18:47:43.665Z,9.50
2023-03-20T18:50:38.717Z,9.80
2023-03-20T18:53:26.492Z,11.32
2023-03-20T18:56:21.473Z,14.27
2023-03-20T18:59:13.566Z,10.20
2023-03-20T19:02:01.987Z,9.10
2023-03-20T19:04:51.459Z,10.02
2023-03-20T19:07:39.885Z,10.30
2023-03-20T19:10:37.162Z,11.25
2023-03-20T19:13:26.835Z,11.38
2023-03-20T19:16:35.848Z,8.65
2023-03-20T19:19:24.957Z,10.97
2023-03-20T19:22:28.424Z,11.52
2023-03-20T19:25:17.602Z,13.98
2023-03-20T19:28:06.277Z,10.85
2023-03-20T19:30:59.446Z,12.82
2023-03-20T19:33:49.389Z,9.68
2023-03-20T19:36:38.981Z,13.02
2023-03-20T19:39:30.275Z,9.32
2023-03-20T19:42:47.444Z,11.13
2023-03-20T19:45:28.468Z,9.48
2023-03-20T19:48:28.482Z,11.27
2023-03-20T19:54:05.779Z,12.73
2023-03-20T19:56:57.884Z,11.90
2023-03-20T19:59:46.441Z,12.57
2023-03-20T20:02:35.022Z,12.35
2023-03-20T20:05:36.085Z,12.45
2023-03-20T20:08:43.438Z,14.95
2023-03-20T20:11:32.180Z,11.00
2023-03-20T20:14:23.499Z,12.88
2023-03-20T20:17:11.627Z,12.35
2023-03-20T20:19:59.790Z,11.25
2023-03-20T20:22:50.974Z,14.18
2023-03-20T20:26:05.586Z,10.60
2023-03-20T20:28:54.451Z,13.38
2023-03-20T20:31:42.852Z,13.07
2023-03-20T20:40:52.216Z,13.57
2023-03-20T20:44:14.082Z,12.05
2023-03-20T20:46:48.241Z,13.93
2023-03-20T20:49:36.543Z,15.63
2023-03-20T20:52:24.049Z,14.45
2023-03-20T20:55:23.822Z,13.80
2023-03-20T21:01:06.831Z,15.75
2023-03-20T21:03:58.971Z,14.80
2023-03-20T21:09:54.307Z,13.73
2023-03-20T21:12:57.789Z,12.13
2023-03-20T21:16:01.089Z,12.95
2023-03-20T21:18:49.117Z,13.13
2023-03-20T21:21:39.306Z,12.50
2023-03-20T21:24:33.257Z,11.07
2023-03-20T21:27:21.848Z,13.35
2023-03-20T21:30:11.270Z,12.82
2023-03-20T21:33:01.881Z,11.85
2023-03-20T21:35:51.611Z,12.43
2023-03-20T21:41:47.293Z,15.30
2023-03-20T21:45:17.881Z,15.52
2023-03-20T21:51:23.539Z,14.23
2023-03-20T21:57:39.723Z,16.00
2023-03-20T22:03:35.126Z,13.50
2023-03-20T22:16:28.481Z,13.07
2023-03-20T22:19:45.967Z,13.98
2023-03-20T22:23:09.493Z,14.93
2023-03-20T22:32:02.408Z,14.77
2023-03-20T22:41:49.581Z,18.30
2023-03-20T22:47:06.959Z,14.27
2023-03-20T22:49:54.040Z,12.20
2023-03-20T22:52:49.184Z,10.85
2023-03-20T22:55:36.746Z,11.70
2023-03-20T22:58:23.796Z,11.68
2023-03-20T23:01:11.927Z,13.75
2023-03-20T23:03:59.018Z,13.50
2023-03-20T23:06:46.089Z,13.43
2023-03-20T23:09:33.104Z,14.10
2023-03-20T23:12:20.366Z,14.68
2023-03-20T23:15:08.442Z,13.20
2023-03-20T23:17:55.569Z,14.75
2023-03-20T23:20:43.019Z,14.82
2023-03-20T23:23:30.758Z,13.32
2023-03-20T23:26:21.177Z,16.10
2023-03-20T23:29:08.509Z,12.35
2023-03-20T23:31:55.645Z,11.70
2023-03-20T23:34:42.737Z,12.35
2023-03-20T23:37:30.296Z,14.20
2023-03-20T23:40:17.657Z,14.00
2023-03-20T23:43:04.755Z,12.68
2023-03-20T23:45:52.052Z,13.40
2023-03-20T23:48:39.813Z,11.77
2023-03-20T23:51:27.308Z,13.43
2023-03-20T23:54:14.448Z,18.45
2023-03-20T23:57:01.524Z,15.82
2023-03-20T23:59:48.647Z,13.27
